sensor_id;sensor_type;location;lat;lon;timestamp;pressure;altitude;pressure_sealevel;temperature;humidity
14117;BME280;7137;51.436;6.544;2024-02-15T00:02:21;101347.03;;;12.58;100.00
14117;BME280;7137;51.436;6.544;2024-02-15T00:05:22;101346.25;;;12.54;100.00
14117;BME280;7137;51.436;6.544;2024-02-15T00:08:24;101352.34;;;12.55;100.00
14117;BME280;7137;51.436;6.544;2024-02-15T00:11:28;101342.28;;;12.70;100.00
14117;BME280;7137;51.436;6.544;2024-02-15T00:14:29;101351.81;;;12.73;100.00
14117;BME280;7137;51.436;6.544;2024-02-15T00:17:31;101346.72;;;12.68;100.00
14117;BME280;7137;51.436;6.544;2024-02-15T00:20:35;101347.41;;;12.73;100.00
14117;BME280;7137;51.436;6.544;2024-02-15T00:23:36;101341.28;;;12.74;100.00
14117;BME280;7137;51.436;6.544;2024-02-15T00:26:39;101352.28;;;12.86;100.00
14117;BME280;7137;51.436;6.544;2024-02-15T00:29:41;101345.44;;;12.80;100.00
14117;BME280;7137;51.436;6.544;2024-02-15T00:32:43;101349.09;;;12.76;100.00
14117;BME280;7137;51.436;6.544;2024-02-15T00:35:46;101342.97;;;12.75;100.00
14117;BME280;7137;51.436;6.544;2024-02-15T00:38:52;101348.00;;;12.83;100.00
14117;BME280;7137;51.436;6.544;2024-02-15T00:41:55;101346.31;;;12.81;100.00
14117;BME280;7137;51.436;6.544;2024-02-15T00:44:56;101344.28;;;12.90;100.00
14117;BME280;7137;51.436;6.544;2024-02-15T00:47:58;101348.50;;;12.94;100.00
14117;BME280;7137;51.436;6.544;2024-02-15T00:50:59;101341.97;;;13.07;100.00
14117;BME280;7137;51.436;6.544;2024-02-15T00:54:02;101351.78;;;13.02;100.00
14117;BME280;7137;51.436;6.544;2024-02-15T00:57:05;101340.38;;;13.03;100.00
14117;BME280;7137;51.436;6.544;2024-02-15T01:00:07;101333.41;;;13.02;100.00
14117;BME280;7137;51.436;6.544;2024-02-15T01:03:09;101335.06;;;13.05;100.00
14117;BME280;7137;51.436;6.544;2024-02-15T01:06:11;101327.19;;;13.05;100.00
14117;BME280;7137;51.436;6.544;2024-02-15T01:09:12;101324.44;;;13.10;100.00
14117;BME280;7137;51.436;6.544;2024-02-15T01:12:15;101322.53;;;13.15;100.00
14117;BME280;7137;51.436;6.544;2024-02-15T01:15:17;101318.28;;;13.11;100.00
14117;BME280;7137;51.436;6.544;2024-02-15T01:18:20;101319.44;;;13.02;100.00
14117;BME280;7137;51.436;6.544;2024-02-15T01:21:21;101321.84;;;13.08;100.00
14117;BME280;7137;51.436;6.544;2024-02-15T01:24:23;101323.81;;;13.01;100.00
14117;BME280;7137;51.436;6.544;2024-02-15T01:27:26;101320.41;;;12.99;100.00
14117;BME280;7137;51.436;6.544;2024-02-15T01:30:30;101321.84;;;13.08;100.00
14117;BME280;7137;51.436;6.544;2024-02-15T01:33:32;101321.00;;;13.07;100.00
14117;BME280;7137;51.436;6.544;2024-02-15T01:36:33;101314.72;;;13.13;100.00
14117;BME280;7137;51.436;6.544;2024-02-15T01:39:35;101320.81;;;13.14;100.00
14117;BME280;7137;51.436;6.544;2024-02-15T01:42:38;101312.59;;;12.98;100.00
14117;BME280;7137;51.436;6.544;2024-02-15T01:45:39;101320.41;;;12.99;100.00
14117;BME280;7137;51.436;6.544;2024-02-15T01:48:41;101324.03;;;12.95;100.00
14117;BME280;7137;51.436;6.544;2024-02-15T01:51:43;101322.81;;;13.05;100.00
14117;BME280;7137;51.436;6.544;2024-02-15T01:54:46;101322.88;;;13.04;100.00
14117;BME280;7137;51.436;6.544;2024-02-15T01:57:49;101313.13;;;13.07;100.00
14117;BME280;7137;51.436;6.544;2024-02-15T02:00:51;101311.34;;;13.10;100.00
14117;BME280;7137;51.436;6.544;2024-02-15T02:03:54;101312.28;;;13.07;100.00
14117;BME280;7137;51.436;6.544;2024-02-15T02:06:57;101304.78;;;12.96;100.00
14117;BME280;7137;51.436;6.544;2024-02-15T02:09:59;101300.44;;;12.95;100.00
14117;BME280;7137;51.436;6.544;2024-02-15T02:13:02;101294.16;;;12.99;100.00
14117;BME280;7137;51.436;6.544;2024-02-15T02:16:04;101290.22;;;12.86;100.00
14117;BME280;7137;51.436;6.544;2024-02-15T02:19:06;101283.38;;;12.81;100.00
14117;BME280;7137;51.436;6.544;2024-02-15T02:22:09;101278.78;;;12.89;100.00
14117;BME280;7137;51.436;6.544;2024-02-15T02:25:13;101276.44;;;12.79;100.00
14117;BME280;7137;51.436;6.544;2024-02-15T02:28:15;101280.38;;;12.93;100.00
14117;BME280;7137;51.436;6.544;2024-02-15T02:31:17;101271.72;;;12.91;100.00
14117;BME280;7137;51.436;6.544;2024-02-15T02:34:18;101276.25;;;12.86;100.00
14117;BME280;7137;51.436;6.544;2024-02-15T02:37:20;101267.38;;;12.90;100.00
14117;BME280;7137;51.436;6.544;2024-02-15T02:40:23;101269.84;;;12.94;100.00
14117;BME280;7137;51.436;6.544;2024-02-15T02:43:24;101265.66;;;12.89;100.00
14117;BME280;7137;51.436;6.544;2024-02-15T02:46:26;101268.13;;;12.93;100.00
14117;BME280;7137;51.436;6.544;2024-02-15T02:49:27;101266.22;;;12.98;100.00
14117;BME280;7137;51.436;6.544;2024-02-15T02:52:29;101262.03;;;12.93;100.00
14117;BME280;7137;51.436;6.544;2024-02-15T02:55:32;101260.31;;;12.92;100.00
14117;BME280;7137;51.436;6.544;2024-02-15T02:58:33;101249.72;;;12.95;100.00
14117;BME280;7137;51.436;6.544;2024-02-15T03:01:35;101247.66;;;13.04;100.00
14117;BME280;7137;51.436;6.544;2024-02-15T03:04:37;101250.16;;;13.09;100.00
14117;BME280;7137;51.436;6.544;2024-02-15T03:07:40;101243.72;;;13.18;100.00
14117;BME280;7137;51.436;6.544;2024-02-15T03:10:43;101239.56;;;13.12;100.00
14117;BME280;7137;51.436;6.544;2024-02-15T03:13:45;101249.13;;;13.13;100.00
14117;BME280;7137;51.436;6.544;2024-02-15T03:16:46;101238.53;;;13.16;100.00
14117;BME280;7137;51.436;6.544;2024-02-15T03:19:48;101240.88;;;13.25;100.00
14117;BME280;7137;51.436;6.544;2024-02-15T03:22:53;101242.72;;;13.22;100.00
14117;BME280;7137;51.436;6.544;2024-02-15T03:25:56;101239.69;;;13.07;100.00
14117;BME280;7137;51.436;6.544;2024-02-15T03:28:58;101237.59;;;13.19;100.00
14117;BME280;7137;51.436;6.544;2024-02-15T03:31:59;101237.06;;;13.07;100.00
14117;BME280;7137;51.436;6.544;2024-02-15T03:35:01;101245.53;;;13.16;100.00
14117;BME280;7137;51.436;6.544;2024-02-15T03:38:03;101231.44;;;13.20;100.00
14117;BME280;7137;51.436;6.544;2024-02-15T03:41:06;101244.69;;;13.15;100.00
14117;BME280;7137;51.436;6.544;2024-02-15T03:44:07;101245.34;;;13.22;100.00
14117;BME280;7137;51.436;6.544;2024-02-15T03:47:10;101237.69;;;13.16;100.00
14117;BME280;7137;51.436;6.544;2024-02-15T03:50:14;101243.88;;;13.13;100.00
14117;BME280;7137;51.436;6.544;2024-02-15T03:53:16;101241.44;;;13.07;100.00
14117;BME280;7137;51.436;6.544;2024-02-15T03:56:19;101243.03;;;13.13;100.00
14117;BME280;7137;51.436;6.544;2024-02-15T03:59:21;101239.66;;;13.09;100.00
14117;BME280;7137;51.436;6.544;2024-02-15T04:02:26;101243.84;;;13.15;100.00
14117;BME280;7137;51.436;6.544;2024-02-15T04:05:29;101237.69;;;13.16;100.00
14117;BME280;7137;51.436;6.544;2024-02-15T04:08:30;101245.53;;;13.16;100.00
14117;BME280;7137;51.436;6.544;2024-02-15T04:11:33;101242.00;;;13.17;100.00
14117;BME280;7137;51.436;6.544;2024-02-15T04:14:35;101240.09;;;13.22;100.00
14117;BME280;7137;51.436;6.544;2024-02-15T04:17:38;101244.44;;;13.23;100.00
14117;BME280;7137;51.436;6.544;2024-02-15T04:20:40;101244.56;;;13.20;100.00
14117;BME280;7137;51.436;6.544;2024-02-15T04:23:45;101240.94;;;13.24;100.00
14117;BME280;7137;51.436;6.544;2024-02-15T04:26:48;101236.19;;;13.07;100.00
14117;BME280;7137;51.436;6.544;2024-02-15T04:29:49;101242.28;;;13.09;100.00
14117;BME280;7137;51.436;6.544;2024-02-15T04:32:51;101242.47;;;13.03;100.00
14117;BME280;7137;51.436;6.544;2024-02-15T04:35:53;101241.00;;;12.94;100.00
14117;BME280;7137;51.436;6.544;2024-02-15T04:38:54;101241.91;;;12.93;100.00
14117;BME280;7137;51.436;6.544;2024-02-15T04:41:57;101244.69;;;12.89;100.00
14117;BME280;7137;51.436;6.544;2024-02-15T04:44:59;101239.09;;;12.99;100.00
14117;BME280;7137;51.436;6.544;2024-02-15T04:48:01;101235.00;;;12.91;100.00
14117;BME280;7137;51.436;6.544;2024-02-15T04:51:03;101233.97;;;12.96;100.00
14117;BME280;7137;51.436;6.544;2024-02-15T04:54:05;101233.91;;;12.98;100.00
14117;BME280;7137;51.436;6.544;2024-02-15T04:57:08;101232.25;;;12.95;100.00
14117;BME280;7137;51.436;6.544;2024-02-15T05:00:12;101228.72;;;12.96;100.00
14117;BME280;7137;51.436;6.544;2024-02-15T05:03:15;101229.41;;;13.01;100.00
14117;BME280;7137;51.436;6.544;2024-02-15T05:06:18;101227.00;;;12.95;100.00
14117;BME280;7137;51.436;6.544;2024-02-15T05:09:19;101228.03;;;12.90;100.00
14117;BME280;7137;51.436;6.544;2024-02-15T05:12:24;101219.59;;;12.80;100.00
14117;BME280;7137;51.436;6.544;2024-02-15T05:15:25;101223.34;;;12.73;100.00
14117;BME280;7137;51.436;6.544;2024-02-15T05:18:27;101229.50;;;12.72;100.00
14117;BME280;7137;51.436;6.544;2024-02-15T05:21:30;101224.16;;;12.75;100.00
14117;BME280;7137;51.436;6.544;2024-02-15T05:24:34;101219.97;;;12.69;100.00
14117;BME280;7137;51.436;6.544;2024-02-15T05:27:37;101221.53;;;12.75;100.00
14117;BME280;7137;51.436;6.544;2024-02-15T05:30:38;101216.28;;;12.75;100.00
14117;BME280;7137;51.436;6.544;2024-02-15T05:33:40;101212.38;;;12.88;100.00
14117;BME280;7137;51.436;6.544;2024-02-15T05:36:44;101215.16;;;12.84;100.00
14117;BME280;7137;51.436;6.544;2024-02-15T05:39:45;101211.75;;;12.80;100.00
14117;BME280;7137;51.436;6.544;2024-02-15T05:42:48;101217.03;;;12.78;100.00
14117;BME280;7137;51.436;6.544;2024-02-15T05:45:49;101212.75;;;12.76;100.00
14117;BME280;7137;51.436;6.544;2024-02-15T05:48:52;101217.56;;;12.90;100.00
14117;BME280;7137;51.436;6.544;2024-02-15T05:51:54;101212.75;;;12.76;100.00
14117;BME280;7137;51.436;6.544;2024-02-15T05:54:56;101217.00;;;12.80;100.00
14117;BME280;7137;51.436;6.544;2024-02-15T05:57:59;101206.56;;;12.78;100.00
14117;BME280;7137;51.436;6.544;2024-02-15T06:01:02;101205.53;;;12.84;100.00
14117;BME280;7137;51.436;6.544;2024-02-15T06:04:06;101201.25;;;12.80;100.00
14117;BME280;7137;51.436;6.544;2024-02-15T06:07:09;101203.06;;;12.78;100.00
14117;BME280;7137;51.436;6.544;2024-02-15T06:10:10;101204.59;;;12.85;100.00
14117;BME280;7137;51.436;6.544;2024-02-15T06:13:13;101210.72;;;12.86;100.00
14117;BME280;7137;51.436;6.544;2024-02-15T06:16:15;101212.66;;;12.79;100.00
14117;BME280;7137;51.436;6.544;2024-02-15T06:19:16;101212.66;;;12.79;100.00
14117;BME280;7137;51.436;6.544;2024-02-15T06:22:18;101214.25;;;12.85;100.00
14117;BME280;7137;51.436;6.544;2024-02-15T06:25:19;101212.53;;;12.84;100.00
14117;BME280;7137;51.436;6.544;2024-02-15T06:28:22;101218.75;;;12.79;100.00
14117;BME280;7137;51.436;6.544;2024-02-15T06:31:38;101215.16;;;12.84;100.00
14117;BME280;7137;51.436;6.544;2024-02-15T06:34:57;101213.06;;;12.93;100.00
14117;BME280;7137;51.436;6.544;2024-02-15T06:38:16;101211.28;;;12.95;100.00
14117;BME280;7137;51.436;6.544;2024-02-15T06:41:35;101209.63;;;12.91;100.00
14117;BME280;7137;51.436;6.544;2024-02-15T06:44:38;101211.09;;;13.00;100.00
14117;BME280;7137;51.436;6.544;2024-02-15T06:47:41;101210.38;;;12.95;100.00
14117;BME280;7137;51.436;6.544;2024-02-15T06:50:42;101215.84;;;12.89;100.00
14117;BME280;7137;51.436;6.544;2024-02-15T06:53:44;101210.38;;;12.96;100.00
14117;BME280;7137;51.436;6.544;2024-02-15T06:56:46;101205.97;;;12.97;100.00
14117;BME280;7137;51.436;6.544;2024-02-15T06:59:49;101213.78;;;12.98;100.00
14117;BME280;7137;51.436;6.544;2024-02-15T07:02:52;101211.16;;;12.98;100.00
14117;BME280;7137;51.436;6.544;2024-02-15T07:05:53;101202.28;;;13.02;100.00
14117;BME280;7137;51.436;6.544;2024-02-15T07:08:56;101197.53;;;12.87;100.00
14117;BME280;7137;51.436;6.544;2024-02-15T07:11:58;101189.91;;;12.79;100.00
14117;BME280;7137;51.436;6.544;2024-02-15T07:15:01;101201.69;;;12.68;100.00
14117;BME280;7137;51.436;6.544;2024-02-15T07:18:04;101193.19;;;12.60;100.00
14117;BME280;7137;51.436;6.544;2024-02-15T07:21:07;101204.75;;;12.53;100.00
14117;BME280;7137;51.436;6.544;2024-02-15T07:24:14;101194.34;;;12.51;100.00
14117;BME280;7137;51.436;6.544;2024-02-15T07:27:15;101190.81;;;12.52;100.00
14117;BME280;7137;51.436;6.544;2024-02-15T07:30:18;101193.78;;;12.41;100.00
14117;BME280;7137;51.436;6.544;2024-02-15T07:33:20;101200.84;;;12.39;100.00
14117;BME280;7137;51.436;6.544;2024-02-15T07:36:23;101189.41;;;12.42;100.00
14117;BME280;7137;51.436;6.544;2024-02-15T07:39:26;101190.06;;;12.48;100.00
14117;BME280;7137;51.436;6.544;2024-02-15T07:42:28;101198.66;;;12.52;100.00
14117;BME280;7137;51.436;6.544;2024-02-15T07:45:31;101196.88;;;12.54;100.00
14117;BME280;7137;51.436;6.544;2024-02-15T07:48:35;101202.88;;;12.58;100.00
14117;BME280;7137;51.436;6.544;2024-02-15T07:51:36;101201.91;;;12.60;100.00
14117;BME280;7137;51.436;6.544;2024-02-15T07:54:38;101199.97;;;12.67;100.00
14117;BME280;7137;51.436;6.544;2024-02-15T07:57:40;101202.53;;;12.68;100.00
14117;BME280;7137;51.436;6.544;2024-02-15T08:00:43;101209.69;;;12.63;100.00
14117;BME280;7137;51.436;6.544;2024-02-15T08:03:44;101214.63;;;12.72;100.00
14117;BME280;7137;51.436;6.544;2024-02-15T08:06:46;101217.59;;;12.62;100.00
14117;BME280;7137;51.436;6.544;2024-02-15T08:09:48;101229.88;;;12.60;100.00
14117;BME280;7137;51.436;6.544;2024-02-15T08:12:51;101224.66;;;12.60;100.00
14117;BME280;7137;51.436;6.544;2024-02-15T08:15:55;101213.38;;;12.58;100.00
14117;BME280;7137;51.436;6.544;2024-02-15T08:18:57;101214.88;;;12.65;100.00
14117;BME280;7137;51.436;6.544;2024-02-15T08:22:04;101203.25;;;12.73;100.00
14117;BME280;7137;51.436;6.544;2024-02-15T08:25:07;101203.41;;;12.69;100.00
14117;BME280;7137;51.436;6.544;2024-02-15T08:28:10;101184.31;;;12.64;100.00
14117;BME280;7137;51.436;6.544;2024-02-15T08:31:13;101189.16;;;12.49;100.00
14117;BME280;7137;51.436;6.544;2024-02-15T08:34:15;101189.47;;;12.40;100.00
14117;BME280;7137;51.436;6.544;2024-02-15T08:37:18;101186.59;;;12.48;100.00
14117;BME280;7137;51.436;6.544;2024-02-15T08:40:20;101175.91;;;12.54;100.00
14117;BME280;7137;51.436;6.544;2024-02-15T08:43:25;101176.50;;;12.62;100.00
14117;BME280;7137;51.436;6.544;2024-02-15T08:46:28;101180.94;;;12.60;100.00
14117;BME280;7137;51.436;6.544;2024-02-15T08:49:29;101182.88;;;12.55;100.00
14117;BME280;7137;51.436;6.544;2024-02-15T08:52:32;101185.38;;;12.58;100.00
14117;BME280;7137;51.436;6.544;2024-02-15T08:55:33;101188.00;;;12.58;100.00
14117;BME280;7137;51.436;6.544;2024-02-15T08:58:36;101191.53;;;12.57;100.00
14117;BME280;7137;51.436;6.544;2024-02-15T09:01:40;101193.91;;;12.65;100.00
14117;BME280;7137;51.436;6.544;2024-02-15T09:04:43;101172.44;;;12.54;100.00
14117;BME280;7137;51.436;6.544;2024-02-15T09:07:45;101165.47;;;12.53;100.00
14117;BME280;7137;51.436;6.544;2024-02-15T09:10:49;101153.47;;;12.45;100.00
14117;BME280;7137;51.436;6.544;2024-02-15T09:13:52;101149.84;;;12.49;100.00
14117;BME280;7137;51.436;6.544;2024-02-15T09:16:56;101154.78;;;12.59;100.00
14117;BME280;7137;51.436;6.544;2024-02-15T09:19:58;101151.91;;;12.66;100.00
14117;BME280;7137;51.436;6.544;2024-02-15T09:22:59;101140.22;;;12.76;100.00
14117;BME280;7137;51.436;6.544;2024-02-15T09:26:04;101152.41;;;12.77;100.00
14117;BME280;7137;51.436;6.544;2024-02-15T09:29:08;101154.00;;;12.83;100.00
14117;BME280;7137;51.436;6.544;2024-02-15T09:32:10;101157.41;;;12.85;100.00
14117;BME280;7137;51.436;6.544;2024-02-15T09:35:13;101154.50;;;12.93;100.00
14117;BME280;7137;51.436;6.544;2024-02-15T09:38:15;101149.81;;;13.02;100.00
14117;BME280;7137;51.436;6.544;2024-02-15T09:41:19;101151.16;;;13.14;100.00
14117;BME280;7137;51.436;6.544;2024-02-15T09:44:21;101159.63;;;13.22;100.00
14117;BME280;7137;51.436;6.544;2024-02-15T09:47:25;101149.97;;;13.24;100.00
14117;BME280;7137;51.436;6.544;2024-02-15T09:50:31;101152.66;;;13.46;100.00
14117;BME280;7137;51.436;6.544;2024-02-15T09:53:35;101167.06;;;13.59;100.00
14117;BME280;7137;51.436;6.544;2024-02-15T09:56:38;101160.63;;;13.68;100.00
14117;BME280;7137;51.436;6.544;2024-02-15T09:59:40;101152.69;;;13.70;100.00
14117;BME280;7137;51.436;6.544;2024-02-15T10:02:44;101155.69;;;13.59;100.00
14117;BME280;7137;51.436;6.544;2024-02-15T10:05:47;101153.81;;;13.62;100.00
14117;BME280;7137;51.436;6.544;2024-02-15T10:08:50;101153.47;;;13.72;100.00
14117;BME280;7137;51.436;6.544;2024-02-15T10:11:53;101155.59;;;13.62;100.00
14117;BME280;7137;51.436;6.544;2024-02-15T10:14:56;101145.47;;;13.75;100.00
14117;BME280;7137;51.436;6.544;2024-02-15T10:18:00;101144.56;;;13.76;100.00
14117;BME280;7137;51.436;6.544;2024-02-15T10:21:02;101143.50;;;13.81;100.00
14117;BME280;7137;51.436;6.544;2024-02-15T10:24:08;101141.59;;;13.85;100.00
14117;BME280;7137;51.436;6.544;2024-02-15T10:27:09;101148.56;;;14.09;100.00
14117;BME280;7137;51.436;6.544;2024-02-15T10:30:16;101143.03;;;14.15;100.00
14117;BME280;7137;51.436;6.544;2024-02-15T10:33:20;101137.25;;;14.29;100.00
14117;BME280;7137;51.436;6.544;2024-02-15T10:36:26;101148.00;;;14.23;100.00
14117;BME280;7137;51.436;6.544;2024-02-15T10:39:28;101148.72;;;14.26;100.00
14117;BME280;7137;51.436;6.544;2024-02-15T10:42:30;101139.56;;;14.37;100.00
14117;BME280;7137;51.436;6.544;2024-02-15T10:45:35;101144.03;;;14.57;100.00
14117;BME280;7137;51.436;6.544;2024-02-15T10:48:38;101134.09;;;14.63;100.00
14117;BME280;7137;51.436;6.544;2024-02-15T10:51:43;101145.31;;;14.68;100.00
14117;BME280;7137;51.436;6.544;2024-02-15T10:54:47;101138.91;;;14.96;99.29
14117;BME280;7137;51.436;6.544;2024-02-15T10:57:52;101133.81;;;14.91;100.00
14117;BME280;7137;51.436;6.544;2024-02-15T11:00:55;101131.50;;;15.04;98.87
14117;BME280;7137;51.436;6.544;2024-02-15T11:04:00;101130.13;;;15.15;97.99
14117;BME280;7137;51.436;6.544;2024-02-15T11:07:03;101134.03;;;15.46;97.97
14117;BME280;7137;51.436;6.544;2024-02-15T11:10:07;101130.03;;;15.37;98.06
14117;BME280;7137;51.436;6.544;2024-02-15T11:13:11;101124.78;;;15.37;96.42
14117;BME280;7137;51.436;6.544;2024-02-15T11:16:41;101132.25;;;15.47;95.71
14117;BME280;7137;51.436;6.544;2024-02-15T11:19:44;101135.03;;;15.43;96.32
14117;BME280;7137;51.436;6.544;2024-02-15T11:22:55;101128.53;;;15.71;95.90
14117;BME280;7137;51.436;6.544;2024-02-15T11:25:57;101129.53;;;15.87;94.31
14117;BME280;7137;51.436;6.544;2024-02-15T11:29:00;101120.56;;;15.91;93.32
14117;BME280;7137;51.436;6.544;2024-02-15T11:32:04;101114.97;;;16.16;94.11
14117;BME280;7137;51.436;6.544;2024-02-15T11:35:08;101115.31;;;16.27;90.43
14117;BME280;7137;51.436;6.544;2024-02-15T11:38:27;101113.78;;;16.58;91.24
14117;BME280;7137;51.436;6.544;2024-02-15T11:41:29;101108.16;;;16.48;89.34
14117;BME280;7137;51.436;6.544;2024-02-15T11:44:30;101102.38;;;16.57;89.54
14117;BME280;7137;51.436;6.544;2024-02-15T11:47:36;101101.94;;;16.67;89.18
14117;BME280;7137;51.436;6.544;2024-02-15T11:50:40;101094.91;;;16.84;88.74
14117;BME280;7137;51.436;6.544;2024-02-15T11:53:41;101100.72;;;16.91;86.37
14117;BME280;7137;51.436;6.544;2024-02-15T11:56:53;101097.13;;;17.09;85.44
14117;BME280;7137;51.436;6.544;2024-02-15T12:00:06;101087.06;;;17.33;86.57
14117;BME280;7137;51.436;6.544;2024-02-15T12:03:34;101089.16;;;17.60;83.69
14117;BME280;7137;51.436;6.544;2024-02-15T12:06:56;101078.53;;;17.44;84.35
14117;BME280;7137;51.436;6.544;2024-02-15T12:10:16;101081.63;;;17.52;82.08
14117;BME280;7137;51.436;6.544;2024-02-15T12:13:35;101082.47;;;17.52;83.47
14117;BME280;7137;51.436;6.544;2024-02-15T12:17:04;101068.50;;;17.50;81.62
14117;BME280;7137;51.436;6.544;2024-02-15T12:20:24;101058.81;;;17.98;81.43
14117;BME280;7137;51.436;6.544;2024-02-15T12:23:26;101052.00;;;17.94;81.25
14117;BME280;7137;51.436;6.544;2024-02-15T12:26:28;101058.22;;;17.93;81.05
14117;BME280;7137;51.436;6.544;2024-02-15T12:29:34;101057.47;;;17.75;81.50
14117;BME280;7137;51.436;6.544;2024-02-15T12:32:36;101048.16;;;17.84;80.66
14117;BME280;7137;51.436;6.544;2024-02-15T12:35:38;101037.69;;;17.83;80.91
14117;BME280;7137;51.436;6.544;2024-02-15T12:38:42;101038.16;;;17.58;81.44
14117;BME280;7137;51.436;6.544;2024-02-15T12:41:48;101030.41;;;17.55;82.29
14117;BME280;7137;51.436;6.544;2024-02-15T12:44:50;101028.03;;;17.82;81.15
14117;BME280;7137;51.436;6.544;2024-02-15T12:47:52;101031.13;;;17.74;80.18
14117;BME280;7137;51.436;6.544;2024-02-15T12:50:54;101030.75;;;17.96;79.68
14117;BME280;7137;51.436;6.544;2024-02-15T12:54:08;101024.59;;;18.11;79.83
14117;BME280;7137;51.436;6.544;2024-02-15T12:57:11;101026.78;;;17.89;80.94
14117;BME280;7137;51.436;6.544;2024-02-15T13:00:14;101019.25;;;17.97;79.87
14117;BME280;7137;51.436;6.544;2024-02-15T13:03:18;101020.69;;;18.02;79.43
14117;BME280;7137;51.436;6.544;2024-02-15T13:06:20;101017.06;;;18.19;79.02
14117;BME280;7137;51.436;6.544;2024-02-15T13:09:25;101012.41;;;18.08;77.89
14117;BME280;7137;51.436;6.544;2024-02-15T13:12:26;101011.31;;;17.97;78.32
14117;BME280;7137;51.436;6.544;2024-02-15T13:15:28;101000.59;;;17.84;78.71
14117;BME280;7137;51.436;6.544;2024-02-15T13:18:33;101003.59;;;17.78;78.08
14117;BME280;7137;51.436;6.544;2024-02-15T13:21:35;100990.63;;;17.73;77.95
14117;BME280;7137;51.436;6.544;2024-02-15T13:24:38;100983.81;;;17.69;79.08
14117;BME280;7137;51.436;6.544;2024-02-15T13:27:40;100978.44;;;17.71;77.46
14117;BME280;7137;51.436;6.544;2024-02-15T13:30:41;100969.41;;;17.75;77.66
14117;BME280;7137;51.436;6.544;2024-02-15T13:33:45;100978.53;;;17.69;79.00
14117;BME280;7137;51.436;6.544;2024-02-15T13:36:47;100968.97;;;17.67;77.85
14117;BME280;7137;51.436;6.544;2024-02-15T13:39:51;100969.00;;;17.97;78.16
14117;BME280;7137;51.436;6.544;2024-02-15T13:42:54;100969.09;;;17.95;77.07
14117;BME280;7137;51.436;6.544;2024-02-15T13:45:58;100960.47;;;18.07;76.97
14117;BME280;7137;51.436;6.544;2024-02-15T13:49:00;100956.63;;;18.27;76.70
14117;BME280;7137;51.436;6.544;2024-02-15T13:52:02;100954.84;;;18.42;74.95
14117;BME280;7137;51.436;6.544;2024-02-15T13:55:05;100954.06;;;18.26;75.32
14117;BME280;7137;51.436;6.544;2024-02-15T13:58:08;100955.34;;;18.34;74.52
14117;BME280;7137;51.436;6.544;2024-02-15T14:01:12;100952.09;;;18.29;75.14
14117;BME280;7137;51.436;6.544;2024-02-15T14:04:14;100940.41;;;18.33;74.86
14117;BME280;7137;51.436;6.544;2024-02-15T14:07:16;100941.06;;;18.37;74.62
14117;BME280;7137;51.436;6.544;2024-02-15T14:10:19;100932.19;;;18.52;74.11
14117;BME280;7137;51.436;6.544;2024-02-15T14:13:21;100932.50;;;18.62;74.07
14117;BME280;7137;51.436;6.544;2024-02-15T14:16:23;100926.19;;;18.79;75.19
14117;BME280;7137;51.436;6.544;2024-02-15T14:19:24;100921.72;;;18.93;75.57
14117;BME280;7137;51.436;6.544;2024-02-15T14:22:26;100911.81;;;18.68;73.91
14117;BME280;7137;51.436;6.544;2024-02-15T14:25:31;100907.16;;;18.58;74.02
14117;BME280;7137;51.436;6.544;2024-02-15T14:28:33;100903.19;;;18.51;73.11
14117;BME280;7137;51.436;6.544;2024-02-15T14:31:35;100914.28;;;18.13;75.33
14117;BME280;7137;51.436;6.544;2024-02-15T14:34:54;100908.06;;;18.14;74.09
14117;BME280;7137;51.436;6.544;2024-02-15T14:37:56;100911.19;;;18.06;72.83
14117;BME280;7137;51.436;6.544;2024-02-15T14:41:00;100900.84;;;17.88;73.76
14117;BME280;7137;51.436;6.544;2024-02-15T14:44:04;100896.09;;;17.78;75.62
14117;BME280;7137;51.436;6.544;2024-02-15T14:47:06;100894.88;;;17.84;77.13
14117;BME280;7137;51.436;6.544;2024-02-15T14:50:08;100891.13;;;17.88;78.04
14117;BME280;7137;51.436;6.544;2024-02-15T14:53:10;100891.22;;;17.71;77.92
14117;BME280;7137;51.436;6.544;2024-02-15T14:56:14;100881.75;;;17.67;77.75
14117;BME280;7137;51.436;6.544;2024-02-15T14:59:17;100880.59;;;17.57;77.71
14117;BME280;7137;51.436;6.544;2024-02-15T15:02:19;100885.56;;;17.47;78.82
14117;BME280;7137;51.436;6.544;2024-02-15T15:05:20;100882.69;;;17.36;78.55
14117;BME280;7137;51.436;6.544;2024-02-15T15:08:40;100862.41;;;17.36;78.53
14117;BME280;7137;51.436;6.544;2024-02-15T15:12:00;100865.38;;;17.30;79.36
14117;BME280;7137;51.436;6.544;2024-02-15T15:15:19;100861.03;;;17.29;78.86
14117;BME280;7137;51.436;6.544;2024-02-15T15:18:20;100839.06;;;17.29;79.07
14117;BME280;7137;51.436;6.544;2024-02-15T15:21:22;100840.88;;;17.12;79.40
14117;BME280;7137;51.436;6.544;2024-02-15T15:24:24;100857.66;;;17.11;79.29
14117;BME280;7137;51.436;6.544;2024-02-15T15:27:27;100870.84;;;17.11;78.89
14117;BME280;7137;51.436;6.544;2024-02-15T15:30:28;100891.03;;;17.12;79.27
14117;BME280;7137;51.436;6.544;2024-02-15T15:33:30;100884.06;;;17.11;79.83
14117;BME280;7137;51.436;6.544;2024-02-15T15:36:33;100876.06;;;16.97;80.68
14117;BME280;7137;51.436;6.544;2024-02-15T15:39:34;100872.06;;;17.06;79.83
14117;BME280;7137;51.436;6.544;2024-02-15T15:42:38;100864.75;;;16.95;78.13
14117;BME280;7137;51.436;6.544;2024-02-15T15:45:40;100861.34;;;16.93;78.87
14117;BME280;7137;51.436;6.544;2024-02-15T15:48:41;100862.19;;;16.78;79.51
14117;BME280;7137;51.436;6.544;2024-02-15T15:51:43;100857.22;;;16.72;78.75
14117;BME280;7137;51.436;6.544;2024-02-15T15:54:45;100857.72;;;16.62;79.72
14117;BME280;7137;51.436;6.544;2024-02-15T15:57:48;100847.84;;;16.66;80.77
14117;BME280;7137;51.436;6.544;2024-02-15T16:00:50;100852.59;;;16.59;81.57
14117;BME280;7137;51.436;6.544;2024-02-15T16:03:51;100854.88;;;16.50;82.21